createdAt,value
2019-04-04T00:02:04.321Z,68.20
2019-04-04T00:04:33.635Z,67.00
2019-04-04T00:07:22.231Z,67.10
2019-04-04T00:09:51.478Z,67.40
2019-04-04T00:12:20.654Z,67.80
2019-04-04T00:14:51.007Z,68.00
2019-04-04T00:17:22.879Z,68.30
2019-04-04T00:19:51.125Z,68.50
2019-04-04T00:22:20.299Z,68.30
2019-04-04T00:24:49.460Z,68.40
2019-04-04T00:27:18.715Z,68.60
2019-04-04T00:29:48.533Z,68.20
2019-04-04T00:32:20.778Z,68.40
2019-04-04T00:34:49.118Z,68.30
2019-04-04T00:37:18.769Z,68.60
2019-04-04T00:39:48.243Z,68.90
2019-04-04T00:42:17.957Z,69.00
2019-04-04T00:44:47.360Z,69.20
2019-04-04T00:47:16.863Z,69.50
2019-04-04T00:49:46.240Z,69.30
2019-04-04T00:52:15.769Z,68.80
2019-04-04T00:54:45.463Z,69.20
2019-04-04T00:57:15.290Z,69.50
2019-04-04T00:59:44.587Z,69.70
2019-04-04T01:02:14.113Z,69.90
2019-04-04T01:04:43.451Z,69.60
2019-04-04T01:07:12.676Z,69.40
2019-04-04T01:09:41.925Z,69.50
2019-04-04T01:12:11.096Z,69.00
2019-04-04T01:14:40.265Z,69.00
2019-04-04T01:17:09.452Z,68.90
2019-04-04T01:19:38.661Z,68.80
2019-04-04T01:22:07.851Z,69.30
2019-04-04T01:24:37.108Z,69.30
2019-04-04T01:27:06.916Z,69.40
2019-04-04T01:29:36.340Z,69.70
2019-04-04T01:32:05.527Z,69.60
2019-04-04T01:34:34.694Z,69.70
2019-04-04T01:37:03.875Z,69.70
2019-04-04T01:39:33.171Z,69.30
2019-04-04T01:42:02.444Z,69.60
2019-04-04T01:44:31.688Z,69.70
2019-04-04T01:47:00.878Z,69.80
2019-04-04T01:49:30.115Z,69.80
2019-04-04T01:51:59.337Z,69.80
2019-04-04T01:54:29.973Z,69.60
2019-04-04T01:56:59.436Z,69.50
2019-04-04T01:59:28.613Z,69.20
2019-04-04T02:01:57.778Z,69.00
2019-04-04T02:04:26.960Z,69.20
2019-04-04T02:06:58.999Z,69.30
2019-04-04T02:09:27.068Z,69.30
2019-04-04T02:11:56.247Z,70.00
2019-04-04T02:14:25.399Z,69.30
2019-04-04T02:16:54.584Z,69.50
2019-04-04T02:19:24.846Z,68.90
2019-04-04T02:21:54.714Z,69.20
2019-04-04T02:24:23.909Z,69.70
2019-04-04T02:26:53.079Z,69.90
2019-04-04T02:29:22.279Z,70.10
2019-04-04T02:31:58.596Z,70.20
2019-04-04T02:34:27.844Z,70.60
2019-04-04T02:36:57.010Z,71.00
2019-04-04T02:39:26.170Z,71.00
2019-04-04T02:41:55.551Z,72.00
2019-04-04T02:44:24.759Z,73.30
2019-04-04T02:46:54.019Z,74.80
2019-04-04T02:49:28.155Z,74.40
2019-04-04T02:51:54.299Z,73.90
2019-04-04T02:54:25.715Z,73.70
2019-04-04T02:56:55.363Z,73.30
2019-04-04T02:59:24.552Z,72.60
2019-04-04T03:01:53.809Z,72.30
2019-04-04T03:04:22.978Z,72.50
2019-04-04T03:06:55.005Z,71.90
2019-04-04T03:09:23.155Z,71.80
2019-04-04T03:11:54.075Z,71.40
2019-04-04T03:14:24.535Z,70.90
2019-04-04T03:16:56.784Z,71.20
2019-04-04T03:19:25.797Z,71.60
2019-04-04T03:21:56.792Z,71.70
2019-04-04T03:24:26.027Z,72.00
2019-04-04T03:26:55.278Z,71.80
2019-04-04T03:29:24.433Z,71.50
2019-04-04T03:31:53.678Z,71.40
2019-04-04T03:34:22.888Z,71.40
2019-04-04T03:36:52.133Z,70.90
2019-04-04T03:39:21.343Z,70.90
2019-04-04T03:41:50.717Z,70.80
2019-04-04T03:44:20.776Z,70.80
2019-04-04T03:46:50.203Z,70.60
2019-04-04T03:49:23.374Z,70.20
2019-04-04T03:51:50.382Z,70.00
2019-04-04T03:54:23.245Z,70.10
2019-04-04T03:56:52.299Z,70.00
2019-04-04T03:59:21.534Z,70.40
2019-04-04T04:02:00.727Z,70.90
2019-04-04T04:04:29.920Z,70.70
2019-04-04T04:06:59.310Z,71.00
2019-04-04T04:09:28.691Z,70.50
2019-04-04T04:11:57.930Z,71.30
2019-04-04T04:14:27.261Z,70.50
2019-04-04T04:16:56.496Z,70.10
2019-04-04T04:19:29.877Z,70.00
2019-04-04T04:21:56.607Z,70.00
2019-04-04T04:24:26.607Z,70.30
2019-04-04T04:26:56.730Z,70.80
2019-04-04T04:29:29.575Z,71.00
2019-04-04T04:31:57.003Z,71.40
2019-04-04T04:34:26.233Z,72.40
2019-04-04T04:36:55.443Z,72.70
2019-04-04T04:39:24.680Z,72.60
2019-04-04T04:41:54.460Z,72.50
2019-04-04T04:44:23.816Z,71.60
2019-04-04T04:46:52.984Z,71.30
2019-04-04T04:49:23.427Z,70.30
2019-04-04T04:51:54.016Z,70.80
2019-04-04T04:54:23.558Z,70.80
2019-04-04T04:56:53.140Z,70.10
2019-04-04T04:59:22.400Z,68.90
2019-04-04T05:01:51.660Z,69.30
2019-04-04T05:04:20.926Z,68.50
2019-04-04T05:06:50.223Z,68.30
2019-04-04T05:09:19.614Z,68.50
2019-04-04T05:11:50.238Z,68.60
2019-04-04T05:14:19.962Z,69.10
2019-04-04T05:16:49.277Z,69.70
2019-04-04T05:19:19.002Z,69.70
2019-04-04T05:21:48.762Z,70.00
2019-04-04T05:24:18.732Z,69.80
2019-04-04T05:26:48.000Z,69.60
2019-04-04T05:29:17.248Z,69.40
2019-04-04T05:31:49.776Z,69.40
2019-04-04T05:34:17.560Z,68.90
2019-04-04T05:36:46.870Z,68.70
2019-04-04T05:39:18.110Z,68.70
2019-04-04T05:41:46.911Z,68.50
2019-04-04T05:44:16.066Z,68.60
2019-04-04T05:46:45.421Z,68.00
2019-04-04T05:49:14.682Z,68.20
2019-04-04T05:51:46.291Z,68.20
2019-04-04T05:54:15.845Z,67.70
2019-04-04T05:56:48.771Z,68.10
2019-04-04T05:59:26.133Z,67.90
2019-04-04T06:01:57.877Z,67.60
2019-04-04T06:04:27.102Z,68.30
2019-04-04T06:06:56.397Z,67.90
2019-04-04T06:09:25.697Z,67.60
2019-04-04T06:11:55.332Z,67.70
2019-04-04T06:14:24.715Z,68.00
2019-04-04T06:16:53.954Z,68.60
2019-04-04T06:19:23.102Z,68.70
2019-04-04T06:21:52.266Z,68.90
2019-04-04T06:24:21.422Z,68.80
2019-04-04T06:26:50.599Z,69.00
2019-04-04T06:29:19.776Z,69.60
2019-04-04T06:31:48.992Z,69.50
2019-04-04T06:34:18.140Z,70.00
2019-04-04T06:36:49.158Z,69.30
2019-04-04T06:39:20.109Z,69.50
2019-04-04T06:41:49.296Z,69.40
2019-04-04T06:44:18.466Z,70.20
2019-04-04T06:46:47.666Z,70.70
2019-04-04T06:49:18.099Z,71.50
2019-04-04T06:51:47.374Z,72.60
2019-04-04T06:54:16.612Z,73.20
2019-04-04T06:56:45.770Z,73.70
2019-04-04T06:59:14.956Z,74.40
2019-04-04T07:01:44.122Z,74.40
2019-04-04T07:04:13.302Z,74.80
2019-04-04T07:06:42.551Z,75.00
2019-04-04T07:09:13.494Z,74.20
2019-04-04T07:11:42.629Z,74.10
2019-04-04T07:14:11.879Z,74.10
2019-04-04T07:16:41.210Z,73.50
2019-04-04T07:19:14.141Z,73.30
2019-04-04T07:21:41.313Z,73.80
2019-04-04T07:24:10.548Z,73.40
2019-04-04T07:26:40.981Z,72.90
2019-04-04T07:29:10.152Z,72.30
2019-04-04T07:31:39.315Z,71.20
2019-04-04T07:34:08.483Z,71.00
2019-04-04T07:36:37.654Z,71.00
2019-04-04T07:39:06.897Z,70.30
2019-04-04T07:41:39.922Z,69.50
2019-04-04T07:44:07.098Z,69.30
2019-04-04T07:46:36.326Z,68.40
2019-04-04T07:49:05.511Z,68.50
2019-04-04T07:51:35.889Z,67.50
2019-04-04T07:54:07.365Z,67.00
2019-04-04T07:56:37.372Z,66.20
2019-04-04T07:59:06.645Z,66.00
2019-04-04T08:01:35.971Z,65.70
2019-04-04T08:04:06.671Z,65.00
2019-04-04T08:06:36.099Z,64.90
2019-04-04T08:09:07.403Z,63.90
2019-04-04T08:11:36.573Z,63.60
2019-04-04T08:14:06.027Z,63.60
2019-04-04T08:16:35.198Z,62.50
2019-04-04T08:19:04.371Z,62.70
2019-04-04T08:21:33.560Z,62.40
2019-04-04T08:24:22.212Z,62.20
2019-04-04T08:26:51.385Z,63.10
2019-04-04T08:29:20.625Z,63.20
2019-04-04T08:31:49.793Z,63.80
2019-04-04T08:34:18.947Z,63.70
2019-04-04T08:36:48.177Z,62.90
2019-04-04T08:39:17.339Z,63.80
2019-04-04T08:41:46.523Z,64.30
2019-04-04T08:44:15.684Z,63.80
2019-04-04T08:46:44.872Z,63.50
2019-04-04T08:49:15.206Z,64.20
2019-04-04T08:51:44.465Z,64.10
2019-04-04T08:54:13.679Z,63.90
2019-04-04T08:56:42.845Z,64.30
2019-04-04T08:59:12.137Z,64.90
2019-04-04T09:01:41.334Z,65.20
2019-04-04T09:04:10.587Z,64.40
2019-04-04T09:06:39.772Z,64.20
2019-04-04T09:09:08.981Z,64.90
2019-04-04T09:11:57.586Z,65.80
2019-04-04T09:14:26.834Z,65.60
2019-04-04T09:16:56.026Z,66.00
2019-04-04T09:19:25.192Z,66.30
2019-04-04T09:21:54.455Z,66.30
2019-04-04T09:24:23.616Z,66.50
2019-04-04T09:26:52.779Z,66.20
2019-04-04T09:29:22.189Z,66.30
2019-04-04T09:31:51.389Z,66.50
2019-04-04T09:34:20.625Z,66.30
2019-04-04T09:36:49.772Z,66.70
2019-04-04T09:39:19.015Z,66.60
2019-04-04T09:41:48.179Z,67.00
2019-04-04T09:44:18.666Z,66.80
2019-04-04T09:46:47.940Z,66.70
2019-04-04T09:49:17.293Z,66.60
2019-04-04T09:51:46.595Z,66.20
2019-04-04T09:54:15.815Z,66.00
2019-04-04T09:56:45.019Z,66.10
2019-04-04T09:59:14.480Z,66.20
2019-04-04T10:01:43.739Z,66.40
2019-04-04T10:04:12.998Z,66.60
2019-04-04T10:06:42.370Z,66.40
2019-04-04T10:09:15.998Z,66.50
2019-04-04T10:11:42.513Z,66.60
2019-04-04T10:14:11.889Z,66.80
2019-04-04T10:16:41.155Z,67.10
2019-04-04T10:19:10.380Z,66.60
2019-04-04T10:21:39.548Z,66.50
2019-04-04T10:24:14.754Z,66.40
2019-04-04T10:26:44.023Z,66.70
2019-04-04T10:29:13.245Z,67.40
2019-04-04T10:31:42.422Z,66.50
2019-04-04T10:34:11.574Z,64.40
2019-04-04T10:36:40.786Z,63.30
2019-04-04T10:39:12.020Z,61.00
2019-04-04T10:41:41.966Z,59.70
2019-04-04T10:44:11.194Z,59.00
2019-04-04T10:46:40.399Z,58.80
2019-04-04T10:49:09.742Z,58.50
2019-04-04T10:51:39.083Z,58.50
2019-04-04T10:54:09.420Z,58.70
2019-04-04T10:56:38.714Z,58.70
2019-04-04T10:59:07.934Z,59.10
2019-04-04T11:01:37.159Z,59.50
2019-04-04T11:04:06.319Z,59.70
2019-04-04T11:06:35.731Z,59.60
2019-04-04T11:09:07.086Z,59.80
2019-04-04T11:11:36.905Z,59.70
2019-04-04T11:14:06.140Z,59.70
2019-04-04T11:16:35.710Z,60.00
2019-04-04T11:19:04.991Z,60.50
2019-04-04T11:21:34.229Z,61.40
2019-04-04T11:24:03.546Z,61.10
2019-04-04T11:26:32.765Z,62.10
2019-04-04T11:29:02.105Z,63.20
2019-04-04T11:31:31.269Z,63.40
2019-04-04T11:34:00.432Z,63.90
2019-04-04T11:36:29.614Z,65.10
2019-04-04T11:38:58.854Z,65.00
2019-04-04T11:41:28.021Z,66.60
2019-04-04T11:43:57.322Z,66.50
2019-04-04T11:46:26.555Z,65.60
2019-04-04T11:48:55.700Z,66.70
2019-04-04T11:51:24.891Z,67.70
2019-04-04T11:53:54.147Z,68.50
2019-04-04T11:56:23.437Z,68.60
2019-04-04T11:58:52.763Z,68.80
2019-04-04T12:01:23.640Z,69.00
2019-04-04T12:03:52.837Z,70.70
2019-04-04T12:06:22.115Z,72.00
2019-04-04T12:08:51.401Z,72.90
2019-04-04T12:11:22.639Z,73.10
2019-04-04T12:13:51.431Z,73.30
2019-04-04T12:16:20.680Z,73.90
2019-04-04T12:18:49.872Z,74.40
2019-04-04T12:21:19.220Z,74.40
2019-04-04T12:23:51.240Z,75.00
2019-04-04T12:26:19.362Z,75.00
2019-04-04T12:28:48.649Z,75.40
2019-04-04T12:31:19.070Z,75.60
2019-04-04T12:33:48.364Z,75.50
2019-04-04T12:36:24.565Z,74.90
2019-04-04T12:38:48.715Z,74.50
2019-04-04T12:41:18.066Z,74.80
2019-04-04T12:43:47.283Z,74.00
2019-04-04T12:46:16.569Z,73.30
2019-04-04T12:48:45.934Z,73.30
2019-04-04T12:51:15.192Z,72.00
2019-04-04T12:53:44.476Z,71.90
2019-04-04T12:56:13.775Z,72.40
2019-04-04T12:58:42.952Z,73.30
2019-04-04T13:01:12.214Z,73.30
2019-04-04T13:03:41.509Z,73.00
2019-04-04T13:06:10.783Z,72.80
2019-04-04T13:08:41.449Z,72.20
2019-04-04T13:11:10.780Z,72.40
2019-04-04T13:13:40.366Z,73.40
2019-04-04T13:16:09.701Z,72.70
2019-04-04T13:18:38.963Z,72.80
2019-04-04T13:21:08.247Z,73.10
2019-04-04T13:23:37.511Z,73.00
2019-04-04T13:26:06.903Z,73.20
2019-04-04T13:28:36.120Z,72.40
2019-04-04T13:31:05.345Z,71.60
2019-04-04T13:33:34.631Z,70.80
2019-04-04T13:36:04.047Z,69.60
2019-04-04T13:38:33.440Z,69.30
2019-04-04T13:41:02.717Z,68.60
2019-04-04T13:43:31.992Z,68.90
2019-04-04T13:46:01.441Z,68.90
2019-04-04T13:48:30.766Z,69.60
2019-04-04T13:51:01.761Z,69.70
2019-04-04T13:53:32.400Z,69.80
2019-04-04T13:56:01.865Z,69.60
2019-04-04T13:58:31.431Z,69.50
2019-04-04T14:01:00.822Z,68.90
2019-04-04T14:03:31.385Z,69.10
2019-04-04T14:06:01.941Z,69.30
2019-04-04T14:08:31.535Z,69.30
2019-04-04T14:11:00.808Z,69.60
2019-04-04T14:13:30.472Z,69.60
2019-04-04T14:15:59.846Z,68.80
2019-04-04T14:18:39.412Z,69.30
2019-04-04T14:21:03.894Z,66.70
2019-04-04T14:23:31.568Z,61.50
2019-04-04T14:26:00.856Z,62.40
2019-04-04T14:28:30.215Z,63.50
2019-04-04T14:30:59.556Z,65.80
2019-04-04T14:33:28.763Z,66.70
2019-04-04T14:35:58.397Z,67.50
2019-04-04T14:38:27.628Z,68.60
2019-04-04T14:40:56.870Z,68.70
2019-04-04T14:43:26.063Z,69.10
2019-04-04T14:45:55.528Z,70.60
2019-04-04T14:48:24.768Z,71.10
2019-04-04T14:50:54.121Z,70.00
2019-04-04T14:53:24.151Z,72.50
2019-04-04T14:55:54.315Z,71.00
2019-04-04T14:58:23.650Z,70.30
2019-04-04T15:00:52.960Z,70.40
2019-04-04T15:03:22.171Z,70.00
2019-04-04T15:05:51.400Z,69.70
2019-04-04T15:08:20.605Z,70.80
2019-04-04T15:10:49.883Z,71.60
2019-04-04T15:13:19.221Z,71.90
2019-04-04T15:16:10.658Z,72.80
2019-04-04T15:18:39.911Z,72.50
2019-04-04T15:21:09.992Z,71.80
2019-04-04T15:23:39.244Z,72.70
2019-04-04T15:26:09.948Z,72.30
2019-04-04T15:28:39.527Z,70.90
2019-04-04T15:31:08.906Z,71.30
2019-04-04T15:33:38.346Z,71.30
2019-04-04T15:36:07.613Z,72.10
2019-04-04T15:38:36.899Z,70.20
2019-04-04T15:41:06.183Z,70.10
2019-04-04T15:43:35.589Z,70.50
2019-04-04T15:46:04.926Z,70.70
2019-04-04T15:48:35.456Z,70.90
2019-04-04T15:51:04.702Z,70.30
2019-04-04T15:53:34.059Z,70.60
2019-04-04T15:56:04.511Z,71.30
2019-04-04T15:58:33.854Z,72.20
2019-04-04T16:01:03.303Z,72.50
2019-04-04T16:03:33.446Z,73.70
2019-04-04T16:06:02.666Z,75.10
2019-04-04T16:08:31.898Z,74.80
2019-04-04T16:11:01.189Z,75.50
2019-04-04T16:13:30.745Z,76.10
2019-04-04T16:16:00.439Z,76.30
2019-04-04T16:18:29.754Z,75.90
2019-04-04T16:20:59.021Z,76.60
2019-04-04T16:23:29.144Z,77.00
2019-04-04T16:26:07.632Z,76.40
2019-04-04T16:28:37.683Z,76.20
2019-04-04T16:31:07.015Z,76.90
2019-04-04T16:33:36.371Z,77.00
2019-04-04T16:36:05.735Z,77.80
2019-04-04T16:38:34.986Z,78.20
2019-04-04T16:41:04.747Z,78.80
2019-04-04T16:43:34.095Z,79.00
2019-04-04T16:46:03.433Z,79.30
2019-04-04T16:48:32.790Z,79.20
2019-04-04T16:51:02.186Z,79.20
2019-04-04T16:53:31.544Z,79.80
2019-04-04T16:56:00.814Z,79.40
2019-04-04T16:58:31.416Z,79.60
2019-04-04T17:01:00.762Z,80.20
2019-04-04T17:03:36.714Z,80.20
2019-04-04T17:06:06.355Z,79.80
2019-04-04T17:08:37.591Z,80.60
2019-04-04T17:11:06.718Z,81.50
2019-04-04T17:13:36.254Z,82.10
2019-04-04T17:16:05.600Z,82.90
2019-04-04T17:18:34.976Z,82.30
2019-04-04T17:21:05.643Z,81.90
2019-04-04T17:23:35.168Z,82.00
2019-04-04T17:26:04.426Z,82.30
2019-04-04T17:28:34.125Z,81.60
2019-04-04T17:31:03.630Z,81.90
2019-04-04T17:33:34.523Z,81.70
2019-04-04T17:36:03.940Z,81.90
2019-04-04T17:38:33.453Z,81.90
2019-04-04T17:41:02.886Z,80.90
2019-04-04T17:43:32.432Z,81.30
2019-04-04T17:46:02.117Z,81.60
2019-04-04T17:48:32.916Z,81.70
2019-04-04T17:51:03.129Z,82.10
2019-04-04T17:53:32.439Z,82.30
2019-04-04T17:56:01.890Z,82.70
2019-04-04T17:58:31.342Z,82.80
2019-04-04T18:01:01.502Z,82.30
2019-04-04T18:03:31.886Z,82.60
2019-04-04T18:06:01.053Z,82.40
2019-04-04T18:08:30.381Z,82.80
2019-04-04T18:10:59.677Z,83.50
2019-04-04T18:13:28.901Z,83.90
2019-04-04T18:15:58.255Z,83.70
2019-04-04T18:18:27.514Z,83.00
2019-04-04T18:20:56.746Z,82.80
2019-04-04T18:23:27.207Z,83.00
2019-04-04T18:25:56.487Z,83.60
2019-04-04T18:28:25.806Z,83.60
2019-04-04T18:30:55.087Z,83.10
2019-04-04T18:33:24.513Z,84.00
2019-04-04T18:35:54.314Z,83.50
2019-04-04T18:38:23.921Z,83.00
2019-04-04T18:40:53.526Z,82.90
2019-04-04T18:43:30.111Z,83.40
2019-04-04T18:45:59.529Z,84.00
2019-04-04T18:48:28.938Z,84.10
2019-04-04T18:50:58.936Z,84.20
2019-04-04T18:53:28.525Z,83.90
2019-04-04T18:55:57.844Z,84.10
2019-04-04T18:58:27.119Z,84.30
2019-04-04T19:00:57.472Z,83.60
2019-04-04T19:03:29.513Z,81.80
2019-04-04T19:05:59.541Z,82.70
2019-04-04T19:08:31.835Z,84.80
2019-04-04T19:11:06.954Z,85.50
2019-04-04T19:13:44.426Z,86.00
2019-04-04T19:16:19.722Z,86.00
2019-04-04T19:19:17.387Z,85.90
2019-04-04T19:21:48.531Z,85.90
2019-04-04T19:24:20.703Z,84.90
2019-04-04T19:26:52.129Z,84.80
2019-04-04T19:29:21.569Z,84.50
2019-04-04T19:31:50.795Z,84.80
2019-04-04T19:34:22.180Z,85.00
2019-04-04T19:36:53.567Z,85.00
2019-04-04T19:39:24.456Z,85.10
2019-04-04T19:41:55.448Z,85.70
2019-04-04T19:44:26.514Z,85.90
2019-04-04T19:46:56.283Z,85.70
2019-04-04T19:49:28.618Z,85.30
2019-04-04T19:51:58.162Z,85.40
2019-04-04T19:54:29.590Z,84.90
2019-04-04T19:57:03.052Z,85.00
2019-04-04T19:59:37.842Z,85.00
2019-04-04T20:02:11.218Z,83.80
2019-04-04T20:04:45.960Z,84.50
2019-04-04T20:07:20.526Z,85.30
2019-04-04T20:09:53.816Z,86.30
2019-04-04T20:12:36.069Z,85.20
2019-04-04T20:15:17.095Z,84.60
2019-04-04T20:17:51.484Z,85.20
2019-04-04T20:20:27.489Z,85.40
2019-04-04T20:23:05.551Z,85.30
2019-04-04T20:25:44.738Z,85.60
2019-04-04T20:28:32.629Z,85.70
2019-04-04T20:31:10.241Z,85.80
2019-04-04T20:34:00.436Z,86.10
2019-04-04T20:36:25.268Z,86.50
2019-04-04T20:39:01.158Z,86.70
2019-04-04T20:41:35.956Z,86.50
2019-04-04T20:44:10.114Z,86.10
2019-04-04T20:46:42.273Z,87.30
2019-04-04T20:49:14.952Z,87.90
2019-04-04T20:51:46.013Z,87.10
2019-04-04T20:54:16.671Z,86.60
2019-04-04T20:56:49.561Z,86.50
2019-04-04T20:59:22.835Z,88.40
2019-04-04T21:01:55.654Z,88.30
2019-04-04T21:04:29.823Z,88.50
2019-04-04T21:07:06.094Z,87.80
2019-04-04T21:09:45.489Z,88.00
2019-04-04T21:12:25.633Z,88.40
2019-04-04T21:15:01.280Z,88.60
2019-04-04T21:17:32.691Z,88.10
2019-04-04T21:20:09.448Z,89.40
2019-04-04T21:22:45.573Z,88.30
2019-04-04T21:25:18.901Z,88.80
2019-04-04T21:28:02.065Z,88.80
2019-04-04T21:30:36.227Z,87.90
2019-04-04T21:33:15.676Z,87.20
2019-04-04T21:35:53.981Z,88.50
2019-04-04T21:38:28.211Z,89.80
2019-04-04T21:41:02.682Z,90.10
2019-04-04T21:43:39.041Z,89.40
2019-04-04T21:46:19.132Z,88.10
2019-04-04T21:48:53.269Z,88.30
2019-04-04T21:51:28.827Z,88.10
2019-04-04T21:54:14.236Z,88.10
2019-04-04T21:56:46.912Z,87.80
2019-04-04T21:59:23.714Z,88.10
2019-04-04T22:02:02.389Z,88.10
2019-04-04T22:04:36.647Z,88.70
2019-04-04T22:07:10.548Z,89.30
2019-04-04T22:09:45.226Z,89.10
2019-04-04T22:12:18.762Z,89.10
2019-04-04T22:14:50.313Z,88.80
2019-04-04T22:17:23.891Z,88.80
2019-04-04T22:19:57.835Z,89.00
2019-04-04T22:22:27.068Z,89.00
2019-04-04T22:24:57.775Z,89.10
2019-04-04T22:27:28.155Z,88.80
2019-04-04T22:29:59.480Z,88.30
2019-04-04T22:32:34.706Z,88.50
2019-04-04T22:35:06.464Z,88.40
2019-04-04T22:37:35.700Z,88.00
2019-04-04T22:40:07.419Z,87.10
2019-04-04T22:42:40.638Z,87.50
2019-04-04T22:45:10.228Z,88.00
2019-04-04T22:47:41.808Z,87.50
2019-04-04T22:50:11.391Z,87.40
2019-04-04T22:52:40.551Z,87.60
2019-04-04T22:55:11.992Z,87.80
2019-04-04T22:57:43.812Z,87.70
2019-04-04T23:00:13.232Z,87.30
2019-04-04T23:02:44.389Z,87.50
2019-04-04T23:05:13.570Z,87.10
2019-04-04T23:07:44.001Z,86.90
2019-04-04T23:10:13.288Z,86.10
2019-04-04T23:12:42.451Z,86.30
2019-04-04T23:15:11.916Z,87.30
2019-04-04T23:17:41.169Z,87.10
2019-04-04T23:20:10.681Z,86.50
2019-04-04T23:22:52.268Z,86.10
2019-04-04T23:25:10.844Z,86.10
2019-04-04T23:27:40.031Z,86.30
2019-04-04T23:30:09.189Z,86.60
2019-04-04T23:32:41.061Z,86.80
2019-04-04T23:35:10.239Z,86.60
2019-04-04T23:37:40.655Z,86.90
2019-04-04T23:40:10.961Z,87.00
2019-04-04T23:42:40.369Z,87.20
2019-04-04T23:45:09.631Z,87.00
2019-04-04T23:47:43.221Z,87.30
2019-04-04T23:50:10.778Z,87.00
2019-04-04T23:52:39.945Z,86.70
2019-04-04T23:55:12.008Z,86.70
2019-04-04T23:57:41.200Z,86.10
